Карточка аэропорта UAKK

Внимание!
Информация на этой странице в стадии наполнения.
Если вы не увидели какой-то информации, или заметили неточность - пожалуйста сообщите нам!
Спасибо!
Команда RU-STAFF
Название аэропортаКараганда
Название аэропорта (англ.)Karaganda
Превышение1768 ft. (538.9 m.)
Координаты49°40.302', 73°20.118'
Высота перехода10000ft
Эшелон переходаFL120, QNH<733:FL130
Коды ответчика0630-0637, 7220-7227
Зона ОрВДАстана РПИ (UACN)
Данные METARUAKK 190200Z VRB01MPS 0150 R05/0225U FG BKN001 16/16 Q1003 NOSIG RMK QBB050 QFE706/0941
Проноз погоды (TAF)UAKK 190117Z 1901/1924 VRB02MPS 0600 FG BKN002 TX24/1909Z TN15/1902Z TEMPO 1901/1904 0100 VV002 FM190400 28004MPS 9999 SCT040 BKN100 TEMPO 1904/1907 33005MPS 3100 -SHRA BR SCT008 BKN030CB TEMPO 1907/1918 33005MPS SCT040CB TEMPO 1918/1924 VRB02MPS 3100 -SHRA BR BKN030CB
NOTAMshow/hide NOTAM
AWOS   TABLE

Информация о ВПП

ВПП Длина ВПП (м.) Покрытие Курс ВПП Частота ILS
053601Железобетон50109.9
233601Железобетон230111.7

Диспетчерские позиции




Спутниковое изображение